createdAt,value
2016-09-25T00:00:02.683Z,1016.09
2016-09-25T00:00:12.680Z,1016.03
2016-09-25T00:00:22.672Z,1016.04
2016-09-25T00:00:32.669Z,1016.08
2016-09-25T00:00:42.663Z,1016.05
2016-09-25T00:00:52.658Z,1016.04
2016-09-25T00:01:02.653Z,1016.07
2016-09-25T00:01:12.649Z,1016.06
2016-09-25T00:01:22.644Z,1016.06
2016-09-25T00:01:32.639Z,1016.05
2016-09-25T00:01:42.633Z,1016.03
2016-09-25T00:01:52.629Z,1016.03
2016-09-25T00:02:02.630Z,1016.07
2016-09-25T00:02:12.616Z,1016.07
2016-09-25T00:02:22.613Z,1016.08
2016-09-25T00:02:32.610Z,1016.09
2016-09-25T00:02:42.604Z,1016.04
2016-09-25T00:02:52.597Z,1016.03
2016-09-25T00:03:02.591Z,1016.06
2016-09-25T00:03:12.586Z,1016.06
2016-09-25T00:03:22.582Z,1016.04
2016-09-25T00:03:32.576Z,1016.05
2016-09-25T00:03:42.571Z,1016.03
2016-09-25T00:03:52.566Z,1016.06
2016-09-25T00:04:02.561Z,1016.05
2016-09-25T00:04:12.557Z,1016.07
2016-09-25T00:04:22.550Z,1016.07
2016-09-25T00:04:32.548Z,1016.09
2016-09-25T00:04:42.542Z,1016
2016-09-25T00:04:52.538Z,1016.09
2016-09-25T00:05:02.530Z,1016.12
2016-09-25T00:05:12.527Z,1016.11
2016-09-25T00:05:22.520Z,1016.05
2016-09-25T00:05:32.517Z,1016.04
2016-09-25T00:05:42.510Z,1016.08
2016-09-25T00:05:52.505Z,1016.07
2016-09-25T00:06:02.502Z,1016.07
2016-09-25T00:06:12.496Z,1016.02
2016-09-25T00:06:22.491Z,1016.04
2016-09-25T00:06:32.486Z,1016.06
2016-09-25T00:06:42.481Z,1016.05
2016-09-25T00:06:52.474Z,1016.01
2016-09-25T00:07:02.471Z,1016.01
2016-09-25T00:07:12.467Z,1016.08
2016-09-25T00:07:22.462Z,1016.07
2016-09-25T00:07:32.456Z,1016.06
2016-09-25T00:07:42.451Z,1016.03
2016-09-25T00:07:52.443Z,1016.1
2016-09-25T00:08:02.440Z,1016.03
2016-09-25T00:08:12.434Z,1016.01
2016-09-25T00:08:22.428Z,1016.01
2016-09-25T00:08:32.423Z,1016.03
2016-09-25T00:08:42.418Z,1016.04
2016-09-25T00:08:52.424Z,1016.02
2016-09-25T00:09:02.412Z,1016.03
2016-09-25T00:09:12.405Z,1016.04
2016-09-25T00:09:22.399Z,1016.04
2016-09-25T00:09:32.394Z,1016
2016-09-25T00:09:42.390Z,1016.09
2016-09-25T00:09:52.392Z,1016.04
2016-09-25T00:10:02.380Z,1016.02
2016-09-25T00:10:12.374Z,1016.03
2016-09-25T00:10:22.368Z,1016.05
2016-09-25T00:10:32.364Z,1016.04
2016-09-25T00:10:42.357Z,1016.03
2016-09-25T00:10:52.354Z,1016.05
2016-09-25T00:11:02.349Z,1016.03
2016-09-25T00:11:12.345Z,1016.05
2016-09-25T00:11:22.339Z,1016.03
2016-09-25T00:11:32.334Z,1016.02
2016-09-25T00:11:42.328Z,1016.04
2016-09-25T00:11:52.323Z,1016.08
2016-09-25T00:12:02.318Z,1016.01
2016-09-25T00:12:12.311Z,1016.01
2016-09-25T00:12:22.307Z,1016.05
2016-09-25T00:12:32.303Z,1016.06
2016-09-25T00:12:42.298Z,1016.05
2016-09-25T00:12:52.293Z,1016.06
2016-09-25T00:13:02.287Z,1016.08
2016-09-25T00:13:12.298Z,1016.07
2016-09-25T00:13:22.274Z,1016.04
2016-09-25T00:13:32.272Z,1016.08
2016-09-25T00:13:42.266Z,1016.04
2016-09-25T00:13:52.261Z,1015.99
2016-09-25T00:14:02.257Z,1016.02
2016-09-25T00:14:12.252Z,1016.06
2016-09-25T00:14:22.246Z,1016.09
2016-09-25T00:14:32.243Z,1016.09
2016-09-25T00:14:42.236Z,1016.04
2016-09-25T00:14:52.233Z,1016.03
2016-09-25T00:15:02.225Z,1016.01
2016-09-25T00:15:12.221Z,1016.06
2016-09-25T00:15:22.216Z,1016.01
2016-09-25T00:15:32.218Z,1016.02
2016-09-25T00:15:42.213Z,1016.07
2016-09-25T00:15:52.202Z,1016
2016-09-25T00:16:02.194Z,1016.04
2016-09-25T00:16:12.190Z,1016.05
2016-09-25T00:16:22.185Z,1015.99
2016-09-25T00:16:32.181Z,1016.02
2016-09-25T00:16:42.175Z,1016.05
2016-09-25T00:16:52.170Z,1016.02
2016-09-25T00:17:02.167Z,1016.03
2016-09-25T00:17:12.161Z,1016.05
2016-09-25T00:17:22.156Z,1016.02
2016-09-25T00:17:32.150Z,1016.03
2016-09-25T00:17:42.151Z,1016.05
2016-09-25T00:17:52.140Z,1015.97
2016-09-25T00:18:02.135Z,1016.02
2016-09-25T00:18:12.128Z,1016.01
2016-09-25T00:18:22.125Z,1016
2016-09-25T00:18:32.119Z,1016.01
2016-09-25T00:18:42.119Z,1016.03
2016-09-25T00:18:52.109Z,1016.05
2016-09-25T00:19:02.111Z,1016.03
2016-09-25T00:19:12.110Z,1016.03
2016-09-25T00:19:22.096Z,1016
2016-09-25T00:19:32.090Z,1016.05
2016-09-25T00:19:42.087Z,1016
2016-09-25T00:19:52.081Z,1016.01
2016-09-25T00:20:02.075Z,1016.01
2016-09-25T00:20:12.069Z,1015.96
2016-09-25T00:20:22.063Z,1016.04
2016-09-25T00:20:32.059Z,1015.97
2016-09-25T00:20:42.052Z,1016
2016-09-25T00:20:52.049Z,1016
2016-09-25T00:21:02.045Z,1016.04
2016-09-25T00:21:12.039Z,1016.03
2016-09-25T00:21:22.033Z,1015.99
2016-09-25T00:21:32.028Z,1015.99
2016-09-25T00:21:42.023Z,1016.03
2016-09-25T00:21:52.018Z,1015.99
2016-09-25T00:22:02.011Z,1016
2016-09-25T00:22:12.009Z,1016.04
2016-09-25T00:22:22.004Z,1015.95
2016-09-25T00:22:31.997Z,1016
2016-09-25T00:22:41.993Z,1016.06
2016-09-25T00:22:51.988Z,1016.02
2016-09-25T00:23:01.981Z,1016.03
2016-09-25T00:23:11.989Z,1016.07
2016-09-25T00:23:21.972Z,1016.04
2016-09-25T00:23:31.970Z,1015.99
2016-09-25T00:23:41.961Z,1015.97
2016-09-25T00:23:51.955Z,1016
2016-09-25T00:24:01.952Z,1016.02
2016-09-25T00:24:11.946Z,1016
2016-09-25T00:24:21.942Z,1015.96
2016-09-25T00:24:31.937Z,1016.01
2016-09-25T00:24:41.934Z,1015.98
2016-09-25T00:24:51.928Z,1016.01
2016-09-25T00:25:01.922Z,1016.03
2016-09-25T00:25:11.914Z,1016
2016-09-25T00:25:21.911Z,1015.99
2016-09-25T00:25:31.907Z,1016
2016-09-25T00:25:41.899Z,1015.98
2016-09-25T00:25:51.897Z,1015.99
2016-09-25T00:26:01.892Z,1015.96
2016-09-25T00:26:11.885Z,1015.99
2016-09-25T00:26:21.879Z,1016
2016-09-25T00:26:31.875Z,1016
2016-09-25T00:26:41.877Z,1016.02
2016-09-25T00:26:51.866Z,1015.99
2016-09-25T00:27:01.857Z,1015.98
2016-09-25T00:27:11.856Z,1015.97
2016-09-25T00:27:21.850Z,1016.01
2016-09-25T00:27:31.841Z,1015.97
2016-09-25T00:27:41.839Z,1015.99
2016-09-25T00:27:51.836Z,1015.98
2016-09-25T00:28:01.829Z,1016.01
2016-09-25T00:28:11.824Z,1016
2016-09-25T00:28:21.818Z,1016.02
2016-09-25T00:28:31.812Z,1016
2016-09-25T00:28:41.810Z,1015.98
2016-09-25T00:28:51.804Z,1015.95
2016-09-25T00:29:01.797Z,1015.96
2016-09-25T00:29:11.794Z,1015.99
2016-09-25T00:29:21.789Z,1015.97
2016-09-25T00:29:31.785Z,1015.92
2016-09-25T00:29:41.778Z,1016.02
2016-09-25T00:29:51.774Z,1015.97
2016-09-25T00:30:01.769Z,1015.96
2016-09-25T00:30:11.765Z,1015.99
2016-09-25T00:30:21.756Z,1015.94
2016-09-25T00:30:31.751Z,1016.01
2016-09-25T00:30:41.747Z,1015.96
2016-09-25T00:30:51.742Z,1015.95
2016-09-25T00:31:01.735Z,1015.97
2016-09-25T00:31:11.734Z,1015.95
2016-09-25T00:31:21.726Z,1015.94
2016-09-25T00:31:31.721Z,1016
2016-09-25T00:31:41.717Z,1015.97
2016-09-25T00:31:51.713Z,1015.97
2016-09-25T00:32:01.707Z,1015.98
2016-09-25T00:32:11.703Z,1015.98
2016-09-25T00:32:21.698Z,1015.98
2016-09-25T00:32:31.692Z,1015.96
2016-09-25T00:32:41.689Z,1016
2016-09-25T00:32:51.681Z,1015.99
2016-09-25T00:33:01.677Z,1015.96
2016-09-25T00:33:11.669Z,1016
2016-09-25T00:33:21.666Z,1015.96
2016-09-25T00:33:31.660Z,1016.01
2016-09-25T00:33:41.654Z,1016.04
2016-09-25T00:33:51.649Z,1015.95
2016-09-25T00:34:01.647Z,1016
2016-09-25T00:34:11.640Z,1015.99
2016-09-25T00:34:21.634Z,1015.98
2016-09-25T00:34:31.631Z,1015.96
2016-09-25T00:34:41.625Z,1016.02
2016-09-25T00:34:51.619Z,1015.95
2016-09-25T00:35:01.616Z,1015.97
2016-09-25T00:35:11.610Z,1015.98
2016-09-25T00:35:21.604Z,1016
2016-09-25T00:35:31.601Z,1015.97
2016-09-25T00:35:41.594Z,1015.96
2016-09-25T00:35:51.588Z,1015.94
2016-09-25T00:36:01.586Z,1015.97
2016-09-25T00:36:11.590Z,1015.98
2016-09-25T00:36:21.573Z,1016.01
2016-09-25T00:36:31.568Z,1016
2016-09-25T00:36:41.565Z,1016
2016-09-25T00:36:51.558Z,1016.01
2016-09-25T00:37:01.553Z,1015.96
2016-09-25T00:37:11.550Z,1015.99
2016-09-25T00:37:21.545Z,1016
2016-09-25T00:37:31.541Z,1016.05
2016-09-25T00:37:41.534Z,1016
2016-09-25T00:37:51.528Z,1016.03
2016-09-25T00:38:01.522Z,1015.99
2016-09-25T00:38:11.518Z,1016
2016-09-25T00:38:21.511Z,1016.03
2016-09-25T00:38:31.516Z,1015.96
2016-09-25T00:38:41.501Z,1016.05
2016-09-25T00:38:51.497Z,1016.01
2016-09-25T00:39:01.492Z,1016.01
2016-09-25T00:39:11.487Z,1015.97
2016-09-25T00:39:21.483Z,1016
2016-09-25T00:39:31.492Z,1015.96
2016-09-25T00:39:41.472Z,1016
2016-09-25T00:39:51.469Z,1015.96
2016-09-25T00:40:01.464Z,1015.97
2016-09-25T00:40:11.455Z,1015.98
2016-09-25T00:40:21.448Z,1015.96
2016-09-25T00:40:31.447Z,1016
2016-09-25T00:40:41.442Z,1015.95
2016-09-25T00:40:51.444Z,1015.98
2016-09-25T00:41:01.428Z,1015.99
2016-09-25T00:41:11.437Z,1016
2016-09-25T00:41:21.420Z,1015.99
2016-09-25T00:41:31.416Z,1015.99
2016-09-25T00:41:41.410Z,1015.98
2016-09-25T00:41:51.420Z,1016.02
2016-09-25T00:42:01.402Z,1016
2016-09-25T00:42:11.395Z,1015.97
2016-09-25T00:42:21.390Z,1015.98
2016-09-25T00:42:31.387Z,1015.98
2016-09-25T00:42:41.381Z,1016.01
2016-09-25T00:42:51.375Z,1015.99
2016-09-25T00:43:01.372Z,1015.98
2016-09-25T00:43:11.365Z,1015.97
2016-09-25T00:43:21.362Z,1015.95
2016-09-25T00:43:31.363Z,1015.95
2016-09-25T00:43:56.267Z,1015.98
2016-09-25T00:43:57.513Z,1016.03
2016-09-25T00:44:07.493Z,1015.97
2016-09-25T00:44:17.489Z,1015.97
2016-09-25T00:44:27.484Z,1016
2016-09-25T00:44:37.480Z,1015.94
2016-09-25T00:44:47.473Z,1015.97
2016-09-25T00:44:57.471Z,1015.96
2016-09-25T00:45:07.480Z,1015.92
2016-09-25T00:45:17.459Z,1016.01
2016-09-25T00:45:27.453Z,1015.93
2016-09-25T00:45:37.450Z,1016
2016-09-25T00:45:47.442Z,1015.97
2016-09-25T00:45:57.439Z,1015.95
2016-09-25T00:46:07.433Z,1015.94
2016-09-25T00:46:17.428Z,1015.94
2016-09-25T00:46:27.423Z,1015.98
2016-09-25T00:46:37.418Z,1015.99
2016-09-25T00:46:47.414Z,1015.97
2016-09-25T00:46:57.409Z,1015.95
2016-09-25T00:47:07.402Z,1015.94
2016-09-25T00:47:17.399Z,1015.97
2016-09-25T00:47:27.393Z,1015.99
2016-09-25T00:47:37.389Z,1015.97
2016-09-25T00:47:47.383Z,1015.97
2016-09-25T00:47:57.392Z,1015.95
2016-09-25T00:48:07.374Z,1015.95
2016-09-25T00:48:17.367Z,1015.99
2016-09-25T00:48:27.362Z,1016
2016-09-25T00:48:37.356Z,1015.96
2016-09-25T00:48:47.352Z,1015.98
2016-09-25T00:48:57.346Z,1015.97
2016-09-25T00:49:07.340Z,1015.97
2016-09-25T00:49:17.335Z,1015.97
2016-09-25T00:49:27.332Z,1015.95
2016-09-25T00:49:37.327Z,1015.97
2016-09-25T00:49:47.321Z,1016
2016-09-25T00:49:57.317Z,1015.95
2016-09-25T00:50:07.318Z,1015.96
2016-09-25T00:50:17.305Z,1015.98
2016-09-25T00:50:27.299Z,1015.97
2016-09-25T00:50:37.294Z,1015.96
2016-09-25T00:50:47.294Z,1015.98
2016-09-25T00:50:57.299Z,1015.97
2016-09-25T00:51:07.280Z,1016
2016-09-25T00:51:17.273Z,1015.97
2016-09-25T00:51:27.268Z,1015.94
2016-09-25T00:51:37.266Z,1015.98
2016-09-25T00:51:47.259Z,1015.97
2016-09-25T00:51:57.253Z,1015.94
2016-09-25T00:52:07.249Z,1016
2016-09-25T00:52:17.245Z,1015.97
2016-09-25T00:52:27.238Z,1015.93
2016-09-25T00:52:37.235Z,1015.97
2016-09-25T00:52:47.232Z,1015.96
2016-09-25T00:52:57.224Z,1015.93
2016-09-25T00:53:07.229Z,1015.99
2016-09-25T00:53:17.214Z,1015.94
2016-09-25T00:53:27.207Z,1015.97
2016-09-25T00:53:37.203Z,1015.94
2016-09-25T00:53:47.198Z,1015.98
2016-09-25T00:53:57.192Z,1015.97
2016-09-25T00:54:07.186Z,1015.93
2016-09-25T00:54:17.181Z,1015.97
2016-09-25T00:54:27.180Z,1015.98
2016-09-25T00:54:37.173Z,1015.97
2016-09-25T00:54:47.169Z,1015.92
2016-09-25T00:54:57.165Z,1015.98
2016-09-25T00:55:07.168Z,1015.92
2016-09-25T00:55:17.154Z,1015.91
2016-09-25T00:55:27.147Z,1015.94
2016-09-25T00:55:37.142Z,1015.93
2016-09-25T00:55:47.138Z,1015.91
2016-09-25T00:55:57.131Z,1015.9
2016-09-25T00:56:07.126Z,1015.94
2016-09-25T00:56:17.121Z,1015.91
2016-09-25T00:56:27.117Z,1015.93
2016-09-25T00:56:37.111Z,1015.93
2016-09-25T00:56:47.107Z,1015.93
2016-09-25T00:56:57.101Z,1015.97
2016-09-25T00:57:07.096Z,1015.93
2016-09-25T00:57:17.091Z,1015.88
2016-09-25T00:57:27.086Z,1015.91
2016-09-25T00:57:37.081Z,1015.91
2016-09-25T00:57:47.077Z,1015.95
2016-09-25T00:57:57.080Z,1015.91
2016-09-25T00:58:07.067Z,1015.88
2016-09-25T00:58:17.057Z,1015.87
2016-09-25T00:58:27.056Z,1015.9
2016-09-25T00:58:37.050Z,1015.95
2016-09-25T00:58:47.043Z,1015.89
2016-09-25T00:58:57.041Z,1015.93
2016-09-25T00:59:07.035Z,1015.9
2016-09-25T00:59:17.032Z,1015.92
2016-09-25T00:59:27.024Z,1015.88
2016-09-25T00:59:37.020Z,1015.95
2016-09-25T00:59:47.018Z,1015.9
2016-09-25T00:59:57.355Z,1015.91
2016-09-25T01:00:07.004Z,1015.88
2016-09-25T01:00:17.000Z,1015.9
2016-09-25T01:00:26.992Z,1015.86
2016-09-25T01:00:36.988Z,1015.9
2016-09-25T01:00:46.983Z,1015.92
2016-09-25T01:00:56.994Z,1015.88
2016-09-25T01:01:06.975Z,1015.9
2016-09-25T01:01:16.968Z,1015.89
2016-09-25T01:01:26.962Z,1015.85
2016-09-25T01:01:36.958Z,1015.91
2016-09-25T01:01:47.285Z,1015.93
2016-09-25T01:01:56.947Z,1015.88
2016-09-25T01:02:06.943Z,1015.87
2016-09-25T01:02:16.938Z,1015.91
2016-09-25T01:02:26.933Z,1015.9
2016-09-25T01:02:36.928Z,1015.86
2016-09-25T01:02:46.924Z,1015.87
2016-09-25T01:02:56.918Z,1015.83
2016-09-25T01:03:06.913Z,1015.87
2016-09-25T01:03:16.914Z,1015.88
2016-09-25T01:03:26.901Z,1015.88
2016-09-25T01:03:36.897Z,1015.83
2016-09-25T01:03:46.890Z,1015.86
2016-09-25T01:03:56.884Z,1015.83
2016-09-25T01:04:06.881Z,1015.84
2016-09-25T01:04:16.876Z,1015.84
2016-09-25T01:04:26.870Z,1015.85
2016-09-25T01:04:36.867Z,1015.84
2016-09-25T01:04:46.861Z,1015.83
2016-09-25T01:04:56.856Z,1015.81
2016-09-25T01:05:06.849Z,1015.87
2016-09-25T01:05:16.845Z,1015.83
2016-09-25T01:05:26.840Z,1015.85
2016-09-25T01:05:36.835Z,1015.84
2016-09-25T01:05:46.831Z,1015.82
2016-09-25T01:05:56.824Z,1015.76
2016-09-25T01:06:06.817Z,1015.8
2016-09-25T01:06:16.814Z,1015.78
2016-09-25T01:06:26.810Z,1015.79
2016-09-25T01:06:36.806Z,1015.78
2016-09-25T01:06:46.799Z,1015.77
2016-09-25T01:06:56.795Z,1015.79
2016-09-25T01:07:06.787Z,1015.84
2016-09-25T01:07:16.783Z,1015.77
2016-09-25T01:07:26.778Z,1015.78
2016-09-25T01:07:36.774Z,1015.81
2016-09-25T01:07:46.770Z,1015.75
2016-09-25T01:07:56.762Z,1015.8
2016-09-25T01:08:06.760Z,1015.78
2016-09-25T01:08:16.753Z,1015.76
2016-09-25T01:08:26.749Z,1015.75
2016-09-25T01:08:36.745Z,1015.75
2016-09-25T01:08:46.742Z,1015.78
2016-09-25T01:08:56.730Z,1015.79
2016-09-25T01:09:06.728Z,1015.79
2016-09-25T01:09:16.721Z,1015.76
2016-09-25T01:09:26.716Z,1015.8
2016-09-25T01:09:36.712Z,1015.77
2016-09-25T01:09:46.706Z,1015.76
2016-09-25T01:09:56.700Z,1015.77
2016-09-25T01:10:06.696Z,1015.77
2016-09-25T01:10:16.692Z,1015.79
2016-09-25T01:10:26.689Z,1015.76
2016-09-25T01:10:36.681Z,1015.74
2016-09-25T01:10:46.675Z,1015.75
2016-09-25T01:10:56.671Z,1015.72
2016-09-25T01:11:06.666Z,1015.7
2016-09-25T01:11:16.664Z,1015.75
2016-09-25T01:11:26.655Z,1015.73
2016-09-25T01:11:36.649Z,1015.74
2016-09-25T01:11:46.653Z,1015.76
2016-09-25T01:11:56.640Z,1015.75
2016-09-25T01:12:06.634Z,1015.76
2016-09-25T01:12:16.638Z,1015.73
2016-09-25T01:12:26.624Z,1015.71
2016-09-25T01:12:36.621Z,1015.79
2016-09-25T01:12:46.613Z,1015.75
2016-09-25T01:12:56.610Z,1015.77
2016-09-25T01:13:06.604Z,1015.71
2016-09-25T01:13:16.597Z,1015.74
2016-09-25T01:13:26.594Z,1015.75
2016-09-25T01:13:36.589Z,1015.75
2016-09-25T01:13:46.583Z,1015.71
2016-09-25T01:13:56.576Z,1015.73
2016-09-25T01:14:06.571Z,1015.71
2016-09-25T01:14:16.566Z,1015.73
2016-09-25T01:14:26.563Z,1015.69
2016-09-25T01:14:36.559Z,1015.68
2016-09-25T01:14:46.553Z,1015.67
2016-09-25T01:14:56.548Z,1015.7
2016-09-25T01:15:06.544Z,1015.74
2016-09-25T01:15:16.540Z,1015.69
2016-09-25T01:15:26.532Z,1015.72
2016-09-25T01:15:36.529Z,1015.67
2016-09-25T01:15:46.523Z,1015.64
2016-09-25T01:15:56.518Z,1015.67
2016-09-25T01:16:06.512Z,1015.7
2016-09-25T01:16:16.508Z,1015.67
2016-09-25T01:16:26.503Z,1015.66
2016-09-25T01:16:36.497Z,1015.64
2016-09-25T01:16:46.493Z,1015.7
2016-09-25T01:16:56.486Z,1015.65
2016-09-25T01:17:06.484Z,1015.68
2016-09-25T01:17:16.475Z,1015.66
2016-09-25T01:17:26.471Z,1015.69
2016-09-25T01:17:36.467Z,1015.68
2016-09-25T01:17:46.461Z,1015.64
2016-09-25T01:17:56.455Z,1015.67
2016-09-25T01:18:06.451Z,1015.65
2016-09-25T01:18:16.444Z,1015.67
2016-09-25T01:18:26.442Z,1015.67
2016-09-25T01:18:36.433Z,1015.65
2016-09-25T01:18:46.429Z,1015.68
2016-09-25T01:18:56.424Z,1015.67
2016-09-25T01:19:06.420Z,1015.66
2016-09-25T01:19:16.415Z,1015.66
2016-09-25T01:19:26.408Z,1015.64
2016-09-25T01:19:36.403Z,1015.6
2016-09-25T01:19:46.401Z,1015.68
2016-09-25T01:19:56.396Z,1015.62
2016-09-25T01:20:06.388Z,1015.66
2016-09-25T01:20:16.385Z,1015.6
2016-09-25T01:20:26.377Z,1015.65
2016-09-25T01:20:36.372Z,1015.59
2016-09-25T01:20:46.368Z,1015.61
2016-09-25T01:20:56.360Z,1015.62
2016-09-25T01:21:06.358Z,1015.64
2016-09-25T01:21:16.353Z,1015.63
2016-09-25T01:21:26.347Z,1015.65
2016-09-25T01:21:36.343Z,1015.62
2016-09-25T01:21:46.337Z,1015.62
2016-09-25T01:21:56.333Z,1015.62
2016-09-25T01:22:06.329Z,1015.62
2016-09-25T01:22:16.321Z,1015.6
2016-09-25T01:22:26.322Z,1015.61
2016-09-25T01:22:36.310Z,1015.6
2016-09-25T01:22:46.307Z,1015.64
2016-09-25T01:22:56.301Z,1015.6
2016-09-25T01:23:06.296Z,1015.6
2016-09-25T01:23:16.293Z,1015.61
2016-09-25T01:23:26.284Z,1015.58
2016-09-25T01:23:36.280Z,1015.65
2016-09-25T01:23:46.275Z,1015.59
2016-09-25T01:23:56.270Z,1015.6
2016-09-25T01:24:06.264Z,1015.56
2016-09-25T01:24:16.260Z,1015.62
2016-09-25T01:24:26.257Z,1015.57
2016-09-25T01:24:36.250Z,1015.58
2016-09-25T01:24:46.246Z,1015.58
2016-09-25T01:24:56.241Z,1015.6
2016-09-25T01:25:06.236Z,1015.6
2016-09-25T01:25:16.230Z,1015.55
2016-09-25T01:25:26.225Z,1015.59
2016-09-25T01:25:36.218Z,1015.57
2016-09-25T01:25:46.213Z,1015.57
2016-09-25T01:25:56.208Z,1015.54
2016-09-25T01:26:06.204Z,1015.58
2016-09-25T01:26:16.199Z,1015.58
2016-09-25T01:26:26.193Z,1015.57
2016-09-25T01:26:36.189Z,1015.57
2016-09-25T01:26:46.195Z,1015.57
2016-09-25T01:26:56.177Z,1015.55
2016-09-25T01:27:06.174Z,1015.6
2016-09-25T01:27:16.171Z,1015.61
2016-09-25T01:27:26.162Z,1015.59
2016-09-25T01:27:36.158Z,1015.6
2016-09-25T01:27:46.153Z,1015.55
2016-09-25T01:27:56.144Z,1015.54
2016-09-25T01:28:06.143Z,1015.58
2016-09-25T01:28:16.138Z,1015.54
2016-09-25T01:28:26.132Z,1015.59
2016-09-25T01:28:36.126Z,1015.6
2016-09-25T01:28:46.120Z,1015.57
2016-09-25T01:28:56.118Z,1015.56
2016-09-25T01:29:06.112Z,1015.57
2016-09-25T01:29:16.106Z,1015.56
2016-09-25T01:29:26.101Z,1015.54
2016-09-25T01:29:36.096Z,1015.56
2016-09-25T01:29:46.092Z,1015.54
2016-09-25T01:29:56.086Z,1015.55
2016-09-25T01:30:06.080Z,1015.57
2016-09-25T01:30:16.075Z,1015.57
2016-09-25T01:30:26.070Z,1015.49
2016-09-25T01:30:36.064Z,1015.55
2016-09-25T01:30:46.059Z,1015.54
2016-09-25T01:30:56.057Z,1015.56
2016-09-25T01:31:06.051Z,1015.52
2016-09-25T01:31:16.045Z,1015.5
2016-09-25T01:31:26.040Z,1015.52
2016-09-25T01:31:36.032Z,1015.54
2016-09-25T01:31:46.027Z,1015.56
2016-09-25T01:31:56.025Z,1015.56
2016-09-25T01:32:06.020Z,1015.53
2016-09-25T01:32:16.014Z,1015.52
2016-09-25T01:32:26.008Z,1015.56
2016-09-25T01:32:36.001Z,1015.53
2016-09-25T01:32:45.996Z,1015.52
2016-09-25T01:32:55.991Z,1015.52
2016-09-25T01:33:05.989Z,1015.5
2016-09-25T01:33:15.982Z,1015.51
2016-09-25T01:33:25.978Z,1015.48
2016-09-25T01:33:35.974Z,1015.51
2016-09-25T01:33:45.967Z,1015.48
2016-09-25T01:33:55.963Z,1015.55
2016-09-25T01:34:05.957Z,1015.48
2016-09-25T01:34:15.952Z,1015.5
2016-09-25T01:34:25.947Z,1015.51
2016-09-25T01:34:35.943Z,1015.49
2016-09-25T01:34:45.937Z,1015.47
2016-09-25T01:34:55.934Z,1015.47
2016-09-25T01:35:05.925Z,1015.44
2016-09-25T01:35:15.921Z,1015.47
2016-09-25T01:35:25.916Z,1015.5
2016-09-25T01:35:35.914Z,1015.49
2016-09-25T01:35:45.905Z,1015.51
2016-09-25T01:35:55.899Z,1015.46
2016-09-25T01:36:05.896Z,1015.46
2016-09-25T01:36:15.892Z,1015.46
2016-09-25T01:36:25.887Z,1015.49
2016-09-25T01:36:35.887Z,1015.48
2016-09-25T01:36:45.875Z,1015.53
2016-09-25T01:36:55.870Z,1015.5
2016-09-25T01:37:05.865Z,1015.51
2016-09-25T01:37:15.860Z,1015.5
2016-09-25T01:37:25.854Z,1015.46
2016-09-25T01:37:35.850Z,1015.49
2016-09-25T01:37:45.841Z,1015.51
2016-09-25T01:37:55.836Z,1015.47
2016-09-25T01:38:05.833Z,1015.48
2016-09-25T01:38:15.828Z,1015.47
2016-09-25T01:38:25.824Z,1015.48
2016-09-25T01:38:35.818Z,1015.47
2016-09-25T01:38:45.818Z,1015.46
2016-09-25T01:38:56.152Z,1015.45
2016-09-25T01:39:05.804Z,1015.47
2016-09-25T01:39:15.797Z,1015.49
2016-09-25T01:39:25.790Z,1015.5
2016-09-25T01:39:35.787Z,1015.45
2016-09-25T01:39:45.783Z,1015.43
2016-09-25T01:39:55.775Z,1015.45
2016-09-25T01:40:05.771Z,1015.41
2016-09-25T01:40:15.767Z,1015.44
2016-09-25T01:40:25.759Z,1015.45
2016-09-25T01:40:35.757Z,1015.5
2016-09-25T01:40:45.752Z,1015.45
2016-09-25T01:40:55.746Z,1015.45
2016-09-25T01:41:05.741Z,1015.43
2016-09-25T01:41:15.737Z,1015.47
2016-09-25T01:41:25.731Z,1015.46
2016-09-25T01:41:35.726Z,1015.4
2016-09-25T01:41:45.720Z,1015.41
2016-09-25T01:41:55.712Z,1015.4
2016-09-25T01:42:05.710Z,1015.45
2016-09-25T01:42:15.711Z,1015.43
2016-09-25T01:42:25.700Z,1015.49
2016-09-25T01:42:35.693Z,1015.46
2016-09-25T01:42:45.690Z,1015.43
2016-09-25T01:42:55.684Z,1015.46
2016-09-25T01:43:05.678Z,1015.46
2016-09-25T01:43:15.674Z,1015.44
2016-09-25T01:43:25.669Z,1015.45
2016-09-25T01:43:35.664Z,1015.41
2016-09-25T01:43:45.659Z,1015.46
2016-09-25T01:43:55.653Z,1015.5
2016-09-25T01:44:05.649Z,1015.44
2016-09-25T01:44:15.644Z,1015.42
2016-09-25T01:44:25.639Z,1015.47
2016-09-25T01:44:35.631Z,1015.43
2016-09-25T01:44:45.627Z,1015.4
2016-09-25T01:44:55.621Z,1015.41
2016-09-25T01:45:05.617Z,1015.42
2016-09-25T01:45:15.619Z,1015.37
2016-09-25T01:45:25.605Z,1015.39
2016-09-25T01:45:35.601Z,1015.37
2016-09-25T01:45:45.596Z,1015.37
2016-09-25T01:45:55.591Z,1015.4
2016-09-25T01:46:05.587Z,1015.37
2016-09-25T01:46:15.581Z,1015.46
2016-09-25T01:46:25.575Z,1015.41
2016-09-25T01:46:35.569Z,1015.43
2016-09-25T01:46:45.567Z,1015.39
2016-09-25T01:46:55.560Z,1015.38
2016-09-25T01:47:05.556Z,1015.41
2016-09-25T01:47:15.548Z,1015.42
2016-09-25T01:47:25.543Z,1015.38
2016-09-25T01:47:35.538Z,1015.42
2016-09-25T01:47:45.534Z,1015.35
2016-09-25T01:47:55.529Z,1015.42
2016-09-25T01:48:05.525Z,1015.36
2016-09-25T01:48:15.521Z,1015.36
2016-09-25T01:48:25.515Z,1015.36
2016-09-25T01:48:35.510Z,1015.39
2016-09-25T01:48:45.503Z,1015.38
2016-09-25T01:48:55.501Z,1015.36
2016-09-25T01:49:05.493Z,1015.38
2016-09-25T01:49:15.493Z,1015.35
2016-09-25T01:49:25.483Z,1015.35
2016-09-25T01:49:35.478Z,1015.4
2016-09-25T01:49:45.471Z,1015.37
2016-09-25T01:49:55.465Z,1015.33
2016-09-25T01:50:05.461Z,1015.36
2016-09-25T01:50:15.457Z,1015.37
2016-09-25T01:50:25.453Z,1015.34
2016-09-25T01:50:35.448Z,1015.38
2016-09-25T01:50:45.446Z,1015.29
2016-09-25T01:50:55.438Z,1015.34
2016-09-25T01:51:05.432Z,1015.32
2016-09-25T01:51:15.428Z,1015.35
2016-09-25T01:51:25.420Z,1015.37
2016-09-25T01:51:35.419Z,1015.37
2016-09-25T01:51:45.411Z,1015.4
2016-09-25T01:51:55.407Z,1015.37
2016-09-25T01:52:05.399Z,1015.37
2016-09-25T01:52:15.395Z,1015.36
2016-09-25T01:52:25.389Z,1015.4
2016-09-25T01:52:35.385Z,1015.42
2016-09-25T01:52:45.379Z,1015.35
2016-09-25T01:52:55.374Z,1015.31
2016-09-25T01:53:05.371Z,1015.37
2016-09-25T01:53:15.365Z,1015.31
2016-09-25T01:53:25.361Z,1015.34
2016-09-25T01:53:35.353Z,1015.36
2016-09-25T01:53:45.350Z,1015.34
2016-09-25T01:53:55.352Z,1015.35
2016-09-25T01:54:05.338Z,1015.32
2016-09-25T01:54:15.332Z,1015.34
2016-09-25T01:54:25.328Z,1015.35
2016-09-25T01:54:35.325Z,1015.34
2016-09-25T01:54:45.330Z,1015.35
2016-09-25T01:54:55.312Z,1015.34
2016-09-25T01:55:05.308Z,1015.33
2016-09-25T01:55:15.302Z,1015.33
2016-09-25T01:55:25.296Z,1015.29
2016-09-25T01:55:35.293Z,1015.34
2016-09-25T01:55:45.288Z,1015.37
2016-09-25T01:55:55.280Z,1015.34
2016-09-25T01:56:05.277Z,1015.35
2016-09-25T01:56:15.275Z,1015.34
2016-09-25T01:56:25.268Z,1015.35
2016-09-25T01:56:35.262Z,1015.39
2016-09-25T01:56:45.255Z,1015.32
2016-09-25T01:56:55.250Z,1015.33
2016-09-25T01:57:05.248Z,1015.33
2016-09-25T01:57:15.241Z,1015.32
2016-09-25T01:57:25.235Z,1015.35
2016-09-25T01:57:35.229Z,1015.34
2016-09-25T01:57:45.225Z,1015.34
2016-09-25T01:57:55.221Z,1015.37
2016-09-25T01:58:05.215Z,1015.34
2016-09-25T01:58:15.215Z,1015.33
2016-09-25T01:58:25.205Z,1015.35
2016-09-25T01:58:35.200Z,1015.35
2016-09-25T01:58:45.195Z,1015.31
2016-09-25T01:58:55.189Z,1015.35
2016-09-25T01:59:05.183Z,1015.36
2016-09-25T01:59:15.177Z,1015.33
2016-09-25T01:59:25.173Z,1015.32
2016-09-25T01:59:35.167Z,1015.35
2016-09-25T01:59:45.164Z,1015.37
2016-09-25T01:59:55.155Z,1015.36
2016-09-25T02:00:05.153Z,1015.4
2016-09-25T02:00:15.148Z,1015.33
2016-09-25T02:00:25.142Z,1015.34
2016-09-25T02:00:35.139Z,1015.33
2016-09-25T02:00:45.132Z,1015.35
2016-09-25T02:00:55.127Z,1015.3
2016-09-25T02:01:05.122Z,1015.3
2016-09-25T02:01:15.116Z,1015.34
2016-09-25T02:01:25.110Z,1015.3
2016-09-25T02:01:35.107Z,1015.32
2016-09-25T02:01:45.102Z,1015.37